createdAt,value
2018-05-26T01:30:05.990Z,81.53
2018-05-26T01:32:33.436Z,81.69
2018-05-26T01:35:00.857Z,81.90
2018-05-26T01:37:28.290Z,82.13
2018-05-26T01:39:57.448Z,82.55
2018-05-26T01:42:24.884Z,82.74
2018-05-26T01:44:52.304Z,82.59
2018-05-26T01:47:19.730Z,82.67
2018-05-26T01:49:47.158Z,82.61
2018-05-26T01:52:14.583Z,82.40
2018-05-26T01:54:41.996Z,82.46
2018-05-26T01:57:15.868Z,82.79
2018-05-26T01:59:43.883Z,83.11
2018-05-26T02:02:11.299Z,83.04
2018-05-26T02:04:38.711Z,82.84
2018-05-26T02:07:06.126Z,82.80
2018-05-26T02:09:33.524Z,82.54
2018-05-26T02:12:00.937Z,83.10
2018-05-26T02:14:28.345Z,83.00
2018-05-26T02:16:55.767Z,83.24
2018-05-26T02:19:23.207Z,83.45
2018-05-26T02:21:50.656Z,83.23
2018-05-26T02:24:18.097Z,83.14
2018-05-26T02:26:45.558Z,83.10
2018-05-26T02:29:12.992Z,83.35
2018-05-26T02:31:40.440Z,83.30
2018-05-26T02:34:07.999Z,83.31
2018-05-26T02:36:35.421Z,83.39
2018-05-26T02:39:03.749Z,83.10
2018-05-26T02:41:31.217Z,83.17
2018-05-26T02:43:58.690Z,83.24
2018-05-26T02:46:26.118Z,83.44
2018-05-26T02:48:53.569Z,83.32
2018-05-26T02:51:21.005Z,83.25
2018-05-26T02:53:48.454Z,83.09
2018-05-26T02:56:15.911Z,83.06
2018-05-26T02:58:43.371Z,83.31
2018-05-26T03:01:10.809Z,83.52
2018-05-26T03:03:39.028Z,84.22
2018-05-26T03:06:12.232Z,83.67
2018-05-26T03:08:45.200Z,83.58
2018-05-26T03:11:18.155Z,83.87
2018-05-26T03:13:52.314Z,84.46
2018-05-26T03:16:19.780Z,84.30
2018-05-26T03:18:47.220Z,83.85
2018-05-26T03:21:18.353Z,84.24
2018-05-26T03:23:45.804Z,84.53
2018-05-26T03:26:13.276Z,84.50
2018-05-26T03:28:40.723Z,84.76
2018-05-26T03:31:08.160Z,84.60
2018-05-26T03:36:09.432Z,84.57
2018-05-26T03:38:36.880Z,84.51
2018-05-26T03:41:04.305Z,84.38
2018-05-26T03:43:31.777Z,84.02
2018-05-26T03:45:59.567Z,84.19
2018-05-26T03:48:27.016Z,84.27
2018-05-26T03:50:54.453Z,84.40
2018-05-26T03:53:21.891Z,84.24
2018-05-26T03:56:01.038Z,83.98
2018-05-26T03:58:40.318Z,83.74
2018-05-26T04:01:07.768Z,83.62
2018-05-26T04:03:35.208Z,83.72
2018-05-26T04:06:02.670Z,83.25
2018-05-26T04:08:30.100Z,83.23
2018-05-26T04:10:57.544Z,83.22
2018-05-26T04:13:25.001Z,83.09
2018-05-26T04:15:52.433Z,83.35
2018-05-26T04:18:20.807Z,83.28
2018-05-26T04:20:48.263Z,82.94
2018-05-26T04:23:18.891Z,82.87
2018-05-26T04:25:47.159Z,82.83
2018-05-26T04:28:14.671Z,83.03
2018-05-26T04:30:42.058Z,82.88
2018-05-26T04:33:09.510Z,83.02
2018-05-26T04:35:36.964Z,82.58
2018-05-26T04:38:04.343Z,82.58
2018-05-26T04:40:31.738Z,82.52
2018-05-26T04:42:59.115Z,82.11
2018-05-26T04:45:26.514Z,81.96
2018-05-26T04:47:53.892Z,81.65
2018-05-26T04:50:21.280Z,81.55
2018-05-26T04:52:48.671Z,81.67
2018-05-26T04:55:16.076Z,81.55
2018-05-26T04:57:44.273Z,81.58
2018-05-26T05:00:11.669Z,81.26
2018-05-26T05:02:39.054Z,81.06
2018-05-26T05:05:06.439Z,80.80
2018-05-26T05:07:33.824Z,80.88
2018-05-26T05:10:01.234Z,80.75
2018-05-26T05:12:28.610Z,80.61
2018-05-26T05:14:55.996Z,80.63
2018-05-26T05:17:23.378Z,80.39
2018-05-26T05:19:50.770Z,80.22
2018-05-26T05:22:19.222Z,80.13
2018-05-26T05:24:46.617Z,80.07
2018-05-26T05:27:13.995Z,79.56
2018-05-26T05:29:41.399Z,79.69
2018-05-26T05:32:08.780Z,79.34
2018-05-26T05:34:36.167Z,78.82
2018-05-26T05:37:03.552Z,79.00
2018-05-26T05:39:30.942Z,78.45
2018-05-26T05:41:58.324Z,78.29
2018-05-26T05:44:26.412Z,78.07
2018-05-26T05:46:53.796Z,77.67
2018-05-26T05:49:21.189Z,77.28
2018-05-26T05:51:48.576Z,76.98
2018-05-26T05:54:15.962Z,76.59
2018-05-26T05:56:43.343Z,76.16
2018-05-26T05:59:10.740Z,76.26
2018-05-26T06:01:38.120Z,75.87
2018-05-26T06:04:06.311Z,75.07
2018-05-26T06:06:33.688Z,75.23
2018-05-26T06:09:01.079Z,74.30
2018-05-26T06:11:28.473Z,74.27
2018-05-26T06:13:55.952Z,73.83
2018-05-26T06:16:23.364Z,73.72
2018-05-26T06:18:50.740Z,73.90
2018-05-26T06:21:18.128Z,73.70
2018-05-26T06:23:45.522Z,73.62
2018-05-26T06:26:13.899Z,73.13
2018-05-26T06:28:41.291Z,72.39
2018-05-26T06:31:08.684Z,72.56
2018-05-26T06:33:36.072Z,72.37
2018-05-26T06:36:03.459Z,72.43
2018-05-26T06:38:33.116Z,72.70
2018-05-26T06:41:00.592Z,72.13
2018-05-26T06:43:28.113Z,71.60
2018-05-26T06:45:56.671Z,71.89
2018-05-26T06:48:25.797Z,71.64
2018-05-26T06:50:53.345Z,71.66
2018-05-26T06:53:20.879Z,71.81
2018-05-26T06:55:49.932Z,71.28
2018-05-26T06:58:22.888Z,71.42
2018-05-26T07:00:50.460Z,70.99
2018-05-26T07:03:18.301Z,70.32
2018-05-26T07:05:47.084Z,70.79
2018-05-26T07:08:16.674Z,69.37
2018-05-26T07:10:44.742Z,69.18
2018-05-26T07:13:13.490Z,69.29
2018-05-26T07:15:42.675Z,68.75
2018-05-26T07:18:18.173Z,69.10
2018-05-26T07:20:47.580Z,69.22
2018-05-26T07:23:21.612Z,69.42
2018-05-26T07:25:49.160Z,68.47
2018-05-26T07:28:17.503Z,69.95
2018-05-26T07:30:50.900Z,68.45
2018-05-26T07:33:20.909Z,69.44
2018-05-26T07:35:56.330Z,67.96
2018-05-26T07:38:29.622Z,66.96
2018-05-26T07:41:00.786Z,66.49
2018-05-26T07:43:33.728Z,66.87
2018-05-26T07:48:35.594Z,65.64
2018-05-26T07:51:05.651Z,65.94
2018-05-26T07:53:35.226Z,65.00
2018-05-26T07:56:02.659Z,65.07
2018-05-26T07:58:30.157Z,65.11
2018-05-26T08:00:57.518Z,64.53
2018-05-26T08:03:24.852Z,64.34
2018-05-26T08:05:52.250Z,64.74
2018-05-26T08:08:19.633Z,64.30
2018-05-26T08:10:47.124Z,64.61
2018-05-26T08:13:14.514Z,64.86
2018-05-26T08:15:41.896Z,63.97
2018-05-26T08:18:09.275Z,63.34
2018-05-26T08:20:36.660Z,62.96
2018-05-26T08:23:04.048Z,62.87
2018-05-26T08:25:31.440Z,63.11
2018-05-26T08:27:58.844Z,62.92
2018-05-26T08:30:26.251Z,63.86
2018-05-26T08:32:53.633Z,63.43
2018-05-26T08:35:21.033Z,62.58
2018-05-26T08:37:48.407Z,62.44
2018-05-26T08:40:15.790Z,62.72
2018-05-26T08:42:43.199Z,62.36
2018-05-26T08:45:10.581Z,62.38
2018-05-26T08:47:37.972Z,62.20
2018-05-26T08:50:05.401Z,61.85
2018-05-26T08:52:32.771Z,62.88
2018-05-26T08:55:00.180Z,62.45
2018-05-26T08:57:27.548Z,62.19
2018-05-26T08:59:54.968Z,62.43
2018-05-26T09:02:22.421Z,61.44
2018-05-26T09:04:49.747Z,61.13
2018-05-26T09:07:17.158Z,61.84
2018-05-26T09:09:44.545Z,60.95
2018-05-26T09:12:11.923Z,61.27
2018-05-26T09:14:39.320Z,61.10
2018-05-26T09:17:06.701Z,61.19
2018-05-26T09:19:34.124Z,60.71
2018-05-26T09:22:01.508Z,60.37
2018-05-26T09:24:28.891Z,60.24
2018-05-26T09:26:56.289Z,60.08
2018-05-26T09:29:23.655Z,58.30
2018-05-26T09:31:51.082Z,59.42
2018-05-26T09:34:18.468Z,58.93
2018-05-26T09:36:45.861Z,60.31
2018-05-26T09:39:13.239Z,59.60
2018-05-26T09:41:40.701Z,59.10
2018-05-26T09:44:08.094Z,59.58
2018-05-26T09:46:35.485Z,59.03
2018-05-26T09:49:02.868Z,59.40
2018-05-26T09:51:30.261Z,58.32
2018-05-26T09:53:57.643Z,57.56
2018-05-26T09:56:25.057Z,57.37
2018-05-26T09:58:52.420Z,56.77
2018-05-26T10:01:19.812Z,56.44
2018-05-26T10:03:47.191Z,56.05
2018-05-26T10:06:14.592Z,56.73
2018-05-26T10:08:42.154Z,54.74
2018-05-26T10:11:11.479Z,53.82
2018-05-26T10:13:38.897Z,54.88
2018-05-26T10:16:06.579Z,54.92
2018-05-26T10:18:34.878Z,53.97
2018-05-26T10:21:02.264Z,54.61
2018-05-26T10:26:04.568Z,52.76
2018-05-26T10:28:31.948Z,51.78
2018-05-26T10:30:59.359Z,51.81
2018-05-26T10:33:26.750Z,52.09
2018-05-26T10:35:54.154Z,48.96
2018-05-26T10:38:21.559Z,48.86
2018-05-26T10:40:49.107Z,50.06
2018-05-26T10:43:16.547Z,51.13
2018-05-26T10:45:56.298Z,50.90
2018-05-26T10:48:23.694Z,50.82
2018-05-26T10:50:51.172Z,51.57
2018-05-26T10:53:18.555Z,51.12
2018-05-26T10:55:46.060Z,50.79
2018-05-26T10:58:14.086Z,49.01
2018-05-26T11:00:41.476Z,49.81
2018-05-26T11:03:08.875Z,49.53
2018-05-26T11:05:36.284Z,49.32
2018-05-26T11:08:07.017Z,48.32
2018-05-26T11:10:34.479Z,49.32
2018-05-26T11:13:01.864Z,49.54
2018-05-26T11:15:29.255Z,49.97
2018-05-26T11:17:56.873Z,48.07
2018-05-26T11:20:24.068Z,48.87
2018-05-26T11:22:51.455Z,47.95
2018-05-26T11:25:18.886Z,47.49
2018-05-26T11:27:46.291Z,46.62
2018-05-26T11:30:13.662Z,46.66
2018-05-26T11:32:41.098Z,45.95
2018-05-26T11:35:08.473Z,45.41
2018-05-26T11:37:35.853Z,45.70
2018-05-26T11:40:03.236Z,46.25
2018-05-26T11:42:30.625Z,46.12
2018-05-26T11:44:58.003Z,45.22
2018-05-26T11:47:25.404Z,46.86
2018-05-26T11:49:52.787Z,43.71
2018-05-26T11:52:20.172Z,44.24
2018-05-26T11:54:47.547Z,45.78
2018-05-26T11:57:14.960Z,45.63
2018-05-26T11:59:42.345Z,45.30
2018-05-26T12:02:09.783Z,44.70
2018-05-26T12:04:37.152Z,44.31
2018-05-26T12:07:04.551Z,44.96
2018-05-26T12:09:31.932Z,45.17
2018-05-26T12:11:59.325Z,44.24
2018-05-26T12:14:26.769Z,46.58
2018-05-26T12:16:54.260Z,45.62
2018-05-26T12:19:27.077Z,44.14
2018-05-26T12:22:00.771Z,44.10
2018-05-26T12:24:34.238Z,43.63
2018-05-26T12:27:23.252Z,45.50
2018-05-26T12:35:31.668Z,44.32
2018-05-26T12:38:20.680Z,42.06
2018-05-26T12:45:39.377Z,44.43
2018-05-26T12:48:17.131Z,43.05
2018-05-26T12:50:52.956Z,43.65
2018-05-26T12:53:37.795Z,44.33
2018-05-26T12:56:17.769Z,43.13
2018-05-26T12:58:47.465Z,44.12
2018-05-26T13:04:02.324Z,41.97
2018-05-26T13:12:10.529Z,41.77
2018-05-26T13:14:39.563Z,40.10
2018-05-26T13:17:26.943Z,39.67
2018-05-26T13:19:59.318Z,40.47
2018-05-26T13:22:31.470Z,39.48
2018-05-26T13:25:01.666Z,40.51
2018-05-26T13:33:58.819Z,39.41
2018-05-26T13:36:53.330Z,41.84
2018-05-26T13:58:31.219Z,44.74
2018-05-26T14:11:26.757Z,41.48
2018-05-26T14:14:20.061Z,43.04
2018-05-26T14:17:18.791Z,43.42
2018-05-26T14:20:10.216Z,44.26
2018-05-26T14:22:48.670Z,40.30
2018-05-26T14:25:23.817Z,41.76
2018-05-26T14:28:09.641Z,43.97
2018-05-26T14:30:48.831Z,42.50
2018-05-26T14:33:25.122Z,41.34
2018-05-26T14:35:59.763Z,41.58
2018-05-26T14:38:53.072Z,39.98
2018-05-26T14:57:54.811Z,37.84
2018-05-26T15:00:22.227Z,37.22
2018-05-26T15:02:49.672Z,36.92
2018-05-26T15:05:17.118Z,36.16
2018-05-26T15:07:44.544Z,35.72
2018-05-26T15:10:11.970Z,37.88
2018-05-26T15:15:13.223Z,38.36
2018-05-26T15:17:40.636Z,40.04
2018-05-26T15:28:59.844Z,42.01
2018-05-26T15:31:27.237Z,39.92
2018-05-26T15:36:48.586Z,39.09
2018-05-26T15:39:15.985Z,42.39
2018-05-26T15:41:43.400Z,40.80
2018-05-26T15:44:10.779Z,40.33
2018-05-26T15:46:39.818Z,39.49
2018-05-26T15:51:46.490Z,40.92
2018-05-26T15:54:15.074Z,37.81
2018-05-26T15:59:16.735Z,37.64
2018-05-26T16:01:44.116Z,41.16
2018-05-26T16:04:11.497Z,41.79
2018-05-26T16:06:38.883Z,40.54
2018-05-26T16:09:06.281Z,40.92
2018-05-26T16:15:00.748Z,41.07
2018-05-26T16:17:28.135Z,37.90
2018-05-26T16:19:55.525Z,39.25
2018-05-26T16:22:23.843Z,40.23
2018-05-26T16:24:51.224Z,39.47
2018-05-26T16:27:18.614Z,39.56
2018-05-26T16:29:46.003Z,47.04
2018-05-26T16:32:13.426Z,44.40
2018-05-26T16:34:40.867Z,45.12
2018-05-26T16:37:08.248Z,44.42
2018-05-26T16:39:35.636Z,41.98
2018-05-26T16:42:03.030Z,42.09
2018-05-26T16:44:30.415Z,42.86
2018-05-26T16:46:57.832Z,38.79
2018-05-26T16:49:25.222Z,40.35
2018-05-26T16:51:52.617Z,42.43
2018-05-26T16:54:19.991Z,42.09
2018-05-26T16:56:47.380Z,41.59
2018-05-26T16:59:14.762Z,44.33
2018-05-26T17:01:42.152Z,44.83
2018-05-26T17:04:09.539Z,42.75
2018-05-26T17:06:36.933Z,39.15
2018-05-26T17:09:04.328Z,41.14
2018-05-26T17:11:31.724Z,38.15
2018-05-26T17:13:59.131Z,38.65
2018-05-26T17:16:26.527Z,40.60
2018-05-26T17:18:53.926Z,38.53
2018-05-26T17:21:21.320Z,37.39
2018-05-26T17:23:48.712Z,37.18
2018-05-26T17:26:16.109Z,39.00
2018-05-26T17:28:43.523Z,39.08
2018-05-26T17:31:10.913Z,37.92
2018-05-26T17:33:38.319Z,37.99
2018-05-26T17:36:05.712Z,38.58
2018-05-26T17:38:33.120Z,39.07
2018-05-26T17:41:00.504Z,39.18
2018-05-26T17:43:27.926Z,40.10
2018-05-26T17:45:55.285Z,39.85
2018-05-26T17:48:22.692Z,40.31
2018-05-26T17:50:50.088Z,40.51
2018-05-26T17:53:17.482Z,41.77
2018-05-26T17:55:44.867Z,44.74
2018-05-26T17:58:12.309Z,45.03
2018-05-26T18:00:39.676Z,45.83
2018-05-26T18:03:07.082Z,45.19
2018-05-26T18:05:34.483Z,44.52
2018-05-26T18:08:01.867Z,44.58
2018-05-26T18:10:29.246Z,46.12
2018-05-26T18:12:56.637Z,45.14
2018-05-26T18:15:24.024Z,44.29
2018-05-26T18:17:51.416Z,45.37
2018-05-26T18:20:18.793Z,45.81
2018-05-26T18:22:46.193Z,47.76
2018-05-26T18:25:13.589Z,48.19
2018-05-26T18:27:41.004Z,50.51
2018-05-26T18:30:08.396Z,50.50
2018-05-26T18:32:35.784Z,50.75
2018-05-26T18:35:03.156Z,49.66
2018-05-26T18:37:30.543Z,51.66
2018-05-26T18:39:57.919Z,51.02
2018-05-26T18:42:25.320Z,52.34
2018-05-26T18:44:52.710Z,53.20
2018-05-26T18:47:20.113Z,54.20
2018-05-26T18:49:47.490Z,53.90
2018-05-26T18:52:14.895Z,54.78
2018-05-26T18:54:42.286Z,56.74
2018-05-26T18:57:09.679Z,56.21
2018-05-26T18:59:37.069Z,56.57
2018-05-26T19:02:04.472Z,57.76
2018-05-26T19:04:31.859Z,59.00
2018-05-26T19:06:59.269Z,59.75
2018-05-26T19:09:26.657Z,59.54
2018-05-26T19:11:54.053Z,59.90
2018-05-26T19:14:21.439Z,60.17
2018-05-26T19:16:49.853Z,60.84
2018-05-26T19:27:09.146Z,62.87
2018-05-26T19:29:41.765Z,64.45
2018-05-26T19:32:11.110Z,63.82
2018-05-26T19:34:39.335Z,64.24
2018-05-26T19:37:08.017Z,64.64
2018-05-26T19:39:51.576Z,64.13
2018-05-26T19:42:30.809Z,65.64
2018-05-26T19:44:59.007Z,67.38
2018-05-26T19:47:26.437Z,67.35
2018-05-26T19:49:55.093Z,67.60
2018-05-26T19:52:25.360Z,68.25
2018-05-26T19:54:53.143Z,68.19
2018-05-26T19:57:21.504Z,68.56
2018-05-26T19:59:50.884Z,68.22
2018-05-26T20:02:23.188Z,69.07
2018-05-26T20:04:55.032Z,68.65
2018-05-26T20:07:25.161Z,68.94
2018-05-26T20:09:58.521Z,68.88
2018-05-26T20:12:26.870Z,70.11
2018-05-26T20:14:56.303Z,69.47
2018-05-26T20:17:24.381Z,69.10
2018-05-26T20:19:51.795Z,69.28
2018-05-26T20:22:19.538Z,69.52
2018-05-26T20:24:47.429Z,71.01
2018-05-26T20:27:14.835Z,71.95
2018-05-26T20:29:44.729Z,72.37
2018-05-26T20:32:12.933Z,72.48
2018-05-26T20:34:40.769Z,73.78
2018-05-26T20:37:08.320Z,72.69
2018-05-26T20:39:36.169Z,72.90
2018-05-26T20:42:06.162Z,73.75
2018-05-26T20:44:36.129Z,75.08
2018-05-26T20:47:04.845Z,76.28
2018-05-26T20:49:32.337Z,74.97
2018-05-26T20:52:00.440Z,75.99
2018-05-26T20:54:31.485Z,77.32
2018-05-26T20:57:01.813Z,78.31
2018-05-26T20:59:30.736Z,77.69
2018-05-26T21:01:58.140Z,77.37
2018-05-26T21:04:27.274Z,77.66
2018-05-26T21:06:55.050Z,78.19
2018-05-26T21:09:23.069Z,78.86
2018-05-26T21:11:51.478Z,79.13
2018-05-26T21:14:19.088Z,79.85
2018-05-26T21:16:49.436Z,80.08
2018-05-26T21:19:18.361Z,79.32
2018-05-26T21:21:46.749Z,79.01
2018-05-26T21:24:16.818Z,78.73
2018-05-26T21:26:45.690Z,79.59
2018-05-26T21:29:13.513Z,79.55
2018-05-26T21:31:41.081Z,79.33
2018-05-26T21:34:14.755Z,78.39
2018-05-26T21:36:42.512Z,76.32
2018-05-26T21:39:10.673Z,78.48
2018-05-26T21:41:39.304Z,78.62
2018-05-26T21:44:07.454Z,78.44
2018-05-26T21:46:34.852Z,78.59
2018-05-26T21:49:03.819Z,77.99
2018-05-26T21:51:31.205Z,77.39
2018-05-26T21:53:59.176Z,74.29
2018-05-26T21:56:26.941Z,72.99
2018-05-26T21:59:04.287Z,72.94
2018-05-26T22:01:32.714Z,73.80
2018-05-26T22:04:02.346Z,73.77
2018-05-26T22:06:30.896Z,72.81
2018-05-26T22:09:02.661Z,72.87
2018-05-26T22:11:31.676Z,75.35
2018-05-26T22:14:01.724Z,75.36
2018-05-26T22:16:30.524Z,74.29
2018-05-26T22:21:36.007Z,72.72
2018-05-26T22:24:05.505Z,72.71
2018-05-26T22:26:33.345Z,72.48
2018-05-26T22:29:01.732Z,72.23
2018-05-26T22:31:29.143Z,72.18
2018-05-26T22:33:57.378Z,72.45
2018-05-26T22:36:24.749Z,72.75
2018-05-26T22:38:52.482Z,72.61
2018-05-26T22:44:13.494Z,71.86
2018-05-26T22:46:41.330Z,72.10
2018-05-26T22:49:09.024Z,72.02
2018-05-26T22:51:36.938Z,71.93
2018-05-26T22:54:07.066Z,72.07
2018-05-26T22:56:35.525Z,72.21
2018-05-26T22:59:02.942Z,72.62
2018-05-26T23:01:30.334Z,72.42
2018-05-26T23:03:57.767Z,72.45
2018-05-26T23:06:28.178Z,72.38
2018-05-26T23:08:56.741Z,72.93
2018-05-26T23:11:24.799Z,72.51
2018-05-26T23:13:53.681Z,72.44
2018-05-26T23:16:21.078Z,72.67
2018-05-26T23:18:48.806Z,73.30
2018-05-26T23:21:16.994Z,74.64
2018-05-26T23:23:46.212Z,75.38
2018-05-26T23:26:14.159Z,75.51
2018-05-26T23:28:43.323Z,75.87
2018-05-26T23:31:11.584Z,76.24
2018-05-26T23:33:38.984Z,76.48
2018-05-26T23:36:06.363Z,77.93
2018-05-26T23:38:33.766Z,79.38
2018-05-26T23:41:01.138Z,79.98
2018-05-26T23:43:28.535Z,80.22
2018-05-26T23:45:55.910Z,81.04
2018-05-26T23:48:23.291Z,81.97
2018-05-26T23:50:50.671Z,81.70
2018-05-26T23:53:18.068Z,81.53
2018-05-26T23:55:45.443Z,81.20
2018-05-26T23:58:12.836Z,82.85
